createdAt,value
2023-04-06T00:00:58.489Z,99688.10
2023-04-06T00:03:28.213Z,99687.89
2023-04-06T00:05:57.625Z,99689.35
2023-04-06T00:08:27.237Z,99682.20
2023-04-06T00:10:56.060Z,99683.98
2023-04-06T00:13:29.201Z,99675.08
2023-04-06T00:15:58.047Z,99675.06
2023-04-06T00:18:26.345Z,99667.54
2023-04-06T00:20:55.091Z,99663.20
2023-04-06T00:23:23.607Z,99657.50
2023-04-06T00:25:52.012Z,99655.95
2023-04-06T00:28:26.253Z,99653.85
2023-04-06T00:30:56.446Z,99650.41
2023-04-06T00:33:25.796Z,99649.48
2023-04-06T00:35:54.209Z,99648.21
2023-04-06T00:38:23.567Z,99649.86
2023-04-06T00:40:52.211Z,99646.05
2023-04-06T00:43:22.003Z,99639.89
2023-04-06T00:45:50.578Z,99636.46
2023-04-06T00:48:19.853Z,99635.19
2023-04-06T00:50:48.288Z,99630.44
2023-04-06T00:53:16.550Z,99627.63
2023-04-06T00:55:45.482Z,99625.11
2023-04-06T00:58:14.191Z,99618.62
2023-04-06T01:00:53.657Z,99620.67
2023-04-06T01:03:24.335Z,99615.34
2023-04-06T01:05:56.837Z,99614.18
2023-04-06T01:08:27.345Z,99615.61
2023-04-06T01:11:03.047Z,99615.90
2023-04-06T01:13:32.313Z,99618.86
2023-04-06T01:16:03.925Z,99611.35
2023-04-06T01:18:49.938Z,99615.46
2023-04-06T01:21:21.408Z,99615.98
2023-04-06T01:24:10.071Z,99614.52
2023-04-06T01:27:07.468Z,99616.33
2023-04-06T01:29:54.574Z,99623.13
2023-04-06T01:32:39.227Z,99617.35
2023-04-06T01:35:08.757Z,99617.72
2023-04-06T01:37:39.787Z,99620.48
2023-04-06T01:40:10.285Z,99617.66
2023-04-06T01:42:45.769Z,99621.15
2023-04-06T01:45:16.194Z,99619.23
2023-04-06T01:47:44.987Z,99618.67
2023-04-06T01:50:14.061Z,99625.27
2023-04-06T01:52:46.317Z,99628.45
2023-04-06T01:55:14.904Z,99632.48
2023-04-06T01:58:03.791Z,99641.39
2023-04-06T02:00:37.037Z,99644.92
2023-04-06T02:03:55.009Z,99646.98
2023-04-06T02:06:23.617Z,99654.36
2023-04-06T02:08:54.218Z,99656.23
2023-04-06T02:11:23.101Z,99659.52
2023-04-06T02:13:57.873Z,99660.24
2023-04-06T02:16:28.836Z,99664.64
2023-04-06T02:18:57.268Z,99666.85
2023-04-06T02:21:25.522Z,99670.81
2023-04-06T02:23:56.863Z,99676.20
2023-04-06T02:26:25.589Z,99683.38
2023-04-06T02:28:56.362Z,99683.51
2023-04-06T02:31:24.621Z,99687.05
2023-04-06T02:33:53.226Z,99691.17
2023-04-06T02:36:21.626Z,99691.48
2023-04-06T02:38:49.983Z,99694.77
2023-04-06T02:41:19.885Z,99695.50
2023-04-06T02:43:48.742Z,99702.34
2023-04-06T02:46:26.646Z,99704.69
2023-04-06T02:48:55.123Z,99705.23
2023-04-06T02:51:23.410Z,99708.03
2023-04-06T02:53:53.845Z,99713.10
2023-04-06T02:56:23.352Z,99720.96
2023-04-06T02:58:52.607Z,99719.85
2023-04-06T03:01:21.388Z,99725.79
2023-04-06T03:03:54.843Z,99729.19
2023-04-06T03:06:26.146Z,99733.40
2023-04-06T03:08:58.173Z,99736.11
2023-04-06T03:11:27.718Z,99743.02
2023-04-06T03:13:56.440Z,99745.30
2023-04-06T03:16:27.262Z,99750.70
2023-04-06T03:18:55.956Z,99754.82
2023-04-06T03:21:24.061Z,99756.34
2023-04-06T03:23:55.034Z,99760.77
2023-04-06T03:26:23.628Z,99764.38
2023-04-06T03:28:53.226Z,99770.00
2023-04-06T03:31:24.331Z,99776.96
2023-04-06T03:34:02.014Z,99781.64
2023-04-06T03:36:35.431Z,99781.98
2023-04-06T03:39:06.746Z,99788.29
2023-04-06T03:41:37.034Z,99795.33
2023-04-06T03:44:34.012Z,99800.88
2023-04-06T03:47:03.434Z,99806.23
2023-04-06T03:49:32.192Z,99815.77
2023-04-06T03:52:00.586Z,99819.52
2023-04-06T03:54:28.921Z,99827.59
2023-04-06T03:56:57.435Z,99835.20
2023-04-06T03:59:32.808Z,99842.01
2023-04-06T04:02:02.750Z,99842.42
2023-04-06T04:04:31.942Z,99843.89
2023-04-06T04:07:00.429Z,99847.91
2023-04-06T04:09:29.873Z,99850.30
2023-04-06T04:11:58.316Z,99853.95
2023-04-06T04:14:26.794Z,99861.65
2023-04-06T04:16:55.018Z,99865.56
2023-04-06T04:19:23.814Z,99872.30
2023-04-06T04:21:52.256Z,99875.77
2023-04-06T04:24:24.074Z,99886.91
2023-04-06T04:26:52.948Z,99891.45
2023-04-06T04:29:22.394Z,99898.10
2023-04-06T04:31:52.174Z,99896.90
2023-04-06T04:34:26.143Z,99902.86
2023-04-06T04:36:57.600Z,99906.49
2023-04-06T04:39:34.626Z,99912.71
2023-04-06T04:42:05.797Z,99917.64
2023-04-06T04:44:35.459Z,99919.89
2023-04-06T04:47:04.089Z,99921.34
2023-04-06T04:49:41.046Z,99930.10
2023-04-06T04:52:10.306Z,99931.00
2023-04-06T04:54:52.784Z,99940.66
2023-04-06T04:57:26.004Z,99946.75
2023-04-06T04:59:57.810Z,99951.37
2023-04-06T05:02:26.674Z,99958.90
2023-04-06T05:05:13.000Z,99961.65
2023-04-06T05:07:42.979Z,99968.33
2023-04-06T05:10:15.501Z,99969.30
2023-04-06T05:12:52.379Z,99969.80
2023-04-06T05:15:21.190Z,99971.04
2023-04-06T05:17:50.536Z,99977.88
2023-04-06T05:20:21.752Z,99982.64
2023-04-06T05:22:51.815Z,99989.71
2023-04-06T05:25:20.331Z,99992.80
2023-04-06T05:27:50.533Z,99998.39
2023-04-06T05:30:29.681Z,100000.52
2023-04-06T05:32:59.751Z,100010.17
2023-04-06T05:35:31.015Z,100016.51
2023-04-06T05:38:01.343Z,100022.04
2023-04-06T05:40:29.737Z,100021.62
2023-04-06T05:42:58.625Z,100019.61
2023-04-06T05:45:27.344Z,100030.23
2023-04-06T05:47:57.381Z,100034.97
2023-04-06T05:50:29.521Z,100041.09
2023-04-06T05:52:58.716Z,100043.02
2023-04-06T05:55:30.918Z,100046.63
2023-04-06T05:58:13.460Z,100045.19
2023-04-06T06:00:47.052Z,100053.77
2023-04-06T06:03:29.176Z,100061.09
2023-04-06T06:06:05.675Z,100061.03
2023-04-06T06:09:01.805Z,100076.39
2023-04-06T06:11:31.717Z,100081.79
2023-04-06T06:14:00.941Z,100095.02
2023-04-06T06:16:29.784Z,100096.52
2023-04-06T06:18:58.855Z,100101.75
2023-04-06T06:21:27.720Z,100107.64
2023-04-06T06:24:01.441Z,100113.27
2023-04-06T06:26:31.082Z,100118.00
2023-04-06T06:29:02.818Z,100124.52
2023-04-06T06:31:32.772Z,100127.58
2023-04-06T06:34:10.920Z,100130.96
2023-04-06T06:36:40.676Z,100138.92
2023-04-06T06:39:11.024Z,100146.80
2023-04-06T06:41:41.349Z,100151.58
2023-04-06T06:44:10.334Z,100156.81
2023-04-06T06:46:42.756Z,100164.22
2023-04-06T06:49:15.327Z,100168.58
2023-04-06T06:51:43.702Z,100177.43
2023-04-06T06:54:12.404Z,100184.64
2023-04-06T06:56:41.313Z,100188.88
2023-04-06T06:59:12.229Z,100194.30
2023-04-06T07:01:47.727Z,100200.20
2023-04-06T07:04:18.439Z,100208.30
2023-04-06T07:06:48.358Z,100213.70
2023-04-06T07:09:16.716Z,100219.48
2023-04-06T07:11:45.141Z,100228.36
2023-04-06T07:14:15.384Z,100235.05
2023-04-06T07:16:49.160Z,100238.67
2023-04-06T07:19:18.368Z,100244.23
2023-04-06T07:21:47.517Z,100254.05
2023-04-06T07:24:19.017Z,100261.89
2023-04-06T07:26:52.287Z,100264.88
2023-04-06T07:29:24.686Z,100270.34
2023-04-06T07:31:53.423Z,100276.04
2023-04-06T07:35:07.202Z,100281.27
2023-04-06T07:37:46.020Z,100286.86
2023-04-06T07:40:15.573Z,100297.39
2023-04-06T07:42:46.908Z,100300.58
2023-04-06T07:45:19.428Z,100302.78
2023-04-06T07:47:51.170Z,100308.68
2023-04-06T07:50:19.988Z,100311.31
2023-04-06T07:52:51.671Z,100312.01
2023-04-06T07:55:21.104Z,100323.39
2023-04-06T07:57:52.068Z,100324.06
2023-04-06T08:00:21.263Z,100325.69
2023-04-06T08:03:05.677Z,100321.98
2023-04-06T08:05:36.217Z,100327.83
2023-04-06T08:08:08.874Z,100329.80
2023-04-06T08:10:37.587Z,100334.11
2023-04-06T08:13:06.178Z,100339.52
2023-04-06T08:15:42.673Z,100342.45
2023-04-06T08:18:19.373Z,100346.39
2023-04-06T08:20:51.197Z,100353.58
2023-04-06T08:23:21.284Z,100361.25
2023-04-06T08:25:49.822Z,100359.48
2023-04-06T08:28:18.524Z,100370.35
2023-04-06T08:30:48.114Z,100372.94
2023-04-06T08:33:24.443Z,100375.70
2023-04-06T08:36:10.705Z,100382.92
2023-04-06T08:38:40.261Z,100389.27
2023-04-06T08:43:39.452Z,100394.34
2023-04-06T08:46:18.971Z,100403.73
2023-04-06T08:48:54.588Z,100409.04
2023-04-06T08:51:25.167Z,100412.40
2023-04-06T08:53:56.987Z,100420.55
2023-04-06T08:56:26.652Z,100421.86
2023-04-06T08:58:56.753Z,100435.49
2023-04-06T09:01:39.825Z,100443.26
2023-04-06T09:04:12.975Z,100449.37
2023-04-06T09:06:43.518Z,100444.73
2023-04-06T09:09:24.935Z,100454.05
2023-04-06T09:12:09.681Z,100456.94
2023-04-06T09:14:42.295Z,100455.73
2023-04-06T09:17:27.486Z,100460.13
2023-04-06T09:19:58.495Z,100453.42
2023-04-06T09:22:39.304Z,100454.48
2023-04-06T09:25:12.258Z,100460.29
2023-04-06T09:27:40.703Z,100464.89
2023-04-06T09:30:14.909Z,100463.15
2023-04-06T09:32:57.694Z,100465.69
2023-04-06T09:35:29.002Z,100473.10
2023-04-06T09:37:57.872Z,100473.96
2023-04-06T09:40:30.466Z,100484.30
2023-04-06T09:43:03.593Z,100488.42
2023-04-06T09:45:34.675Z,100500.20
2023-04-06T09:48:03.483Z,100501.05
2023-04-06T09:50:34.620Z,100504.75
2023-04-06T09:53:03.935Z,100501.80
2023-04-06T09:55:40.460Z,100510.30
2023-04-06T09:58:29.417Z,100510.61
2023-04-06T10:01:47.485Z,100513.00
2023-04-06T10:04:43.207Z,100520.70
2023-04-06T10:07:17.260Z,100518.31
2023-04-06T10:09:47.155Z,100524.48
2023-04-06T10:12:19.027Z,100528.17
2023-04-06T10:14:47.823Z,100534.30
2023-04-06T10:17:16.533Z,100543.89
2023-04-06T10:19:56.748Z,100545.80
2023-04-06T10:22:44.032Z,100553.67
2023-04-06T10:25:12.460Z,100563.62
2023-04-06T10:27:40.968Z,100560.12
2023-04-06T10:30:15.984Z,100565.00
2023-04-06T10:33:16.263Z,100563.64
2023-04-06T10:35:45.194Z,100567.39
2023-04-06T10:38:17.465Z,100582.65
2023-04-06T10:40:47.963Z,100584.36
2023-04-06T10:43:23.539Z,100587.55
2023-04-06T10:46:03.732Z,100599.88
2023-04-06T10:48:42.773Z,100602.19
2023-04-06T10:51:12.535Z,100599.42
2023-04-06T10:53:43.015Z,100602.39
2023-04-06T10:56:17.863Z,100612.35
2023-04-06T10:58:57.431Z,100611.48
2023-04-06T11:01:28.865Z,100621.20
2023-04-06T11:04:02.636Z,100629.34
2023-04-06T11:06:35.070Z,100628.92
2023-04-06T11:09:04.823Z,100631.66
2023-04-06T11:11:33.607Z,100633.73
2023-04-06T11:14:04.793Z,100641.08
2023-04-06T11:16:34.465Z,100642.39
2023-04-06T11:19:16.040Z,100649.88
2023-04-06T11:21:53.116Z,100652.04
2023-04-06T11:24:29.538Z,100658.80
2023-04-06T11:27:02.548Z,100662.34
2023-04-06T11:29:42.978Z,100664.11
2023-04-06T11:32:11.664Z,100658.42
2023-04-06T11:34:47.121Z,100663.81
2023-04-06T11:37:17.270Z,100662.39
2023-04-06T11:39:53.396Z,100670.73
2023-04-06T11:42:29.605Z,100670.30
2023-04-06T11:45:02.112Z,100676.34
2023-04-06T11:47:37.595Z,100684.05
2023-04-06T11:50:10.962Z,100684.05
2023-04-06T11:52:42.846Z,100686.98
2023-04-06T11:55:19.225Z,100684.05
2023-04-06T11:57:48.049Z,100682.66
2023-04-06T12:00:17.523Z,100686.11
2023-04-06T12:02:47.449Z,100688.02
2023-04-06T12:05:16.430Z,100691.84
2023-04-06T12:07:47.100Z,100693.69
2023-04-06T12:10:15.530Z,100697.03
2023-04-06T12:12:46.138Z,100694.42
2023-04-06T12:15:16.830Z,100696.16
2023-04-06T12:17:46.479Z,100698.36
2023-04-06T12:20:26.061Z,100692.12
2023-04-06T12:23:02.519Z,100686.80
2023-04-06T12:25:32.354Z,100700.08
2023-04-06T12:28:02.332Z,100706.52
2023-04-06T12:30:36.148Z,100713.48
2023-04-06T12:33:05.629Z,100715.98
2023-04-06T12:35:35.905Z,100720.13
2023-04-06T12:38:11.760Z,100722.84
2023-04-06T12:40:46.578Z,100728.23
2023-04-06T12:43:18.366Z,100730.71
2023-04-06T12:45:55.083Z,100733.81
2023-04-06T12:48:23.845Z,100747.09
2023-04-06T12:51:04.015Z,100745.82
2023-04-06T12:53:34.323Z,100748.94
2023-04-06T12:56:22.354Z,100752.14
2023-04-06T12:58:54.123Z,100757.88
2023-04-06T13:01:22.864Z,100757.23
2023-04-06T13:03:52.742Z,100757.52
2023-04-06T13:06:21.974Z,100762.35
2023-04-06T13:08:52.003Z,100759.73
2023-04-06T13:11:28.780Z,100763.33
2023-04-06T13:13:58.044Z,100767.66
2023-04-06T13:16:44.772Z,100769.66
2023-04-06T13:19:14.584Z,100777.38
2023-04-06T13:21:46.671Z,100778.70
2023-04-06T13:24:16.595Z,100779.92
2023-04-06T13:26:56.653Z,100784.72
2023-04-06T13:29:27.248Z,100784.39
2023-04-06T13:31:55.571Z,100791.45
2023-04-06T13:34:26.111Z,100790.77
2023-04-06T13:36:57.643Z,100795.56
2023-04-06T13:39:29.715Z,100798.89
2023-04-06T13:42:03.928Z,100800.61
2023-04-06T13:44:35.881Z,100801.52
2023-04-06T13:47:04.651Z,100794.40
2023-04-06T13:49:55.176Z,100799.95
2023-04-06T13:52:43.526Z,100800.58
2023-04-06T13:55:37.128Z,100802.59
2023-04-06T13:58:12.304Z,100805.58
2023-04-06T14:01:03.175Z,100807.09
2023-04-06T14:04:11.077Z,100804.08
2023-04-06T14:06:43.089Z,100806.14
2023-04-06T14:09:23.528Z,100805.14
2023-04-06T14:11:55.946Z,100805.70
2023-04-06T14:14:29.133Z,100808.05
2023-04-06T14:16:59.623Z,100808.36
2023-04-06T14:19:28.706Z,100809.50
2023-04-06T14:22:03.925Z,100808.67
2023-04-06T14:24:32.510Z,100806.70
2023-04-06T14:27:02.375Z,100811.31
2023-04-06T14:29:31.608Z,100813.16
2023-04-06T14:32:03.134Z,100812.48
2023-04-06T14:34:37.108Z,100819.12
2023-04-06T14:37:08.367Z,100823.04
2023-04-06T14:39:41.801Z,100823.20
2023-04-06T14:42:14.265Z,100822.20
2023-04-06T14:44:45.940Z,100823.15
2023-04-06T14:47:21.794Z,100826.48
2023-04-06T14:49:54.884Z,100831.38
2023-04-06T14:52:25.856Z,100831.70
2023-04-06T14:54:54.226Z,100835.21
2023-04-06T14:57:28.850Z,100832.34
2023-04-06T14:59:57.451Z,100832.78
2023-04-06T15:02:27.904Z,100837.97
2023-04-06T15:04:59.844Z,100841.27
2023-04-06T15:07:28.255Z,100838.97
2023-04-06T15:10:05.474Z,100840.31
2023-04-06T15:12:38.869Z,100855.38
2023-04-06T15:15:08.720Z,100857.27
2023-04-06T15:17:37.137Z,100861.63
2023-04-06T15:20:10.157Z,100867.20
2023-04-06T15:22:41.132Z,100867.73
2023-04-06T15:25:09.667Z,100867.56
2023-04-06T15:27:39.593Z,100871.48
2023-04-06T15:30:08.189Z,100873.67
2023-04-06T15:32:39.355Z,100874.09
2023-04-06T15:35:12.135Z,100873.95
2023-04-06T15:37:41.068Z,100879.55
2023-04-06T15:40:15.591Z,100883.48
2023-04-06T15:42:45.736Z,100882.31
2023-04-06T15:45:14.444Z,100886.48
2023-04-06T15:47:44.989Z,100890.17
2023-04-06T15:50:14.328Z,100893.00
2023-04-06T15:52:44.677Z,100895.58
2023-04-06T15:55:13.146Z,100895.94
2023-04-06T15:57:42.689Z,100902.05
2023-04-06T16:00:11.613Z,100907.71
2023-04-06T16:02:41.689Z,100910.80
2023-04-06T16:05:10.347Z,100912.52
2023-04-06T16:07:39.036Z,100911.31
2023-04-06T16:10:08.215Z,100912.84
2023-04-06T16:12:36.511Z,100917.81
2023-04-06T16:15:06.425Z,100919.09
2023-04-06T16:17:35.632Z,100920.30
2023-04-06T16:20:04.092Z,100925.24
2023-04-06T16:22:33.918Z,100925.80
2023-04-06T16:25:03.091Z,100932.14
2023-04-06T16:27:36.248Z,100935.74
2023-04-06T16:30:44.735Z,100938.34
2023-04-06T16:33:17.232Z,100946.96
2023-04-06T16:35:46.986Z,100947.85
2023-04-06T16:38:16.226Z,100950.81
2023-04-06T16:40:45.246Z,100959.00
2023-04-06T16:43:14.193Z,100958.48
2023-04-06T16:45:42.661Z,100964.87
2023-04-06T16:48:16.990Z,100965.04
2023-04-06T16:50:47.631Z,100968.30
2023-04-06T16:53:17.773Z,100969.34
2023-04-06T16:55:46.529Z,100974.17
2023-04-06T16:58:16.477Z,100978.43
2023-04-06T17:00:45.699Z,100985.34
2023-04-06T17:03:15.366Z,100987.41
2023-04-06T17:05:45.451Z,100984.71
2023-04-06T17:08:17.220Z,100993.30
2023-04-06T17:10:59.167Z,100998.63
2023-04-06T17:13:34.779Z,101000.41
2023-04-06T17:16:03.773Z,101003.86
2023-04-06T17:18:32.148Z,101008.38
2023-04-06T17:21:07.913Z,101007.17
2023-04-06T17:23:36.891Z,101005.64
2023-04-06T17:26:08.771Z,101005.80
2023-04-06T17:28:38.013Z,101008.89
2023-04-06T17:31:11.111Z,101013.54
2023-04-06T17:33:41.129Z,101016.30
2023-04-06T17:36:15.594Z,101019.60
2023-04-06T17:38:46.816Z,101016.81
2023-04-06T17:41:16.246Z,101021.09
2023-04-06T17:43:44.632Z,101022.47
2023-04-06T17:46:13.240Z,101025.72
2023-04-06T17:48:42.011Z,101034.65
2023-04-06T17:51:19.138Z,101032.11
2023-04-06T17:53:47.479Z,101028.80
2023-04-06T17:56:15.649Z,101028.26
2023-04-06T17:58:45.853Z,101032.55
2023-04-06T18:01:20.465Z,101034.10
2023-04-06T18:03:49.082Z,101036.65
2023-04-06T18:06:17.888Z,101037.66
2023-04-06T18:08:46.235Z,101036.00
2023-04-06T18:11:20.022Z,101037.75
2023-04-06T18:13:48.758Z,101035.87
2023-04-06T18:16:21.527Z,101038.26
2023-04-06T18:18:55.606Z,101038.86
2023-04-06T18:21:24.932Z,101037.60
2023-04-06T18:23:55.716Z,101037.27
2023-04-06T18:26:27.666Z,101039.33
2023-04-06T18:28:56.226Z,101037.40
2023-04-06T18:31:24.495Z,101039.43
2023-04-06T18:33:54.959Z,101040.27
2023-04-06T18:36:24.291Z,101042.56
2023-04-06T18:38:52.775Z,101048.26
2023-04-06T18:41:22.794Z,101049.46
2023-04-06T18:43:54.493Z,101052.74
2023-04-06T18:46:23.047Z,101048.03
2023-04-06T18:48:52.520Z,101054.41
2023-04-06T18:51:28.296Z,101054.41
2023-04-06T18:53:57.986Z,101059.58
2023-04-06T18:56:26.417Z,101059.41
2023-04-06T18:58:54.964Z,101061.17
2023-04-06T19:01:33.375Z,101059.42
2023-04-06T19:04:01.894Z,101060.25
2023-04-06T19:06:33.915Z,101057.34
2023-04-06T19:09:04.998Z,101061.50
2023-04-06T19:11:33.540Z,101063.77
2023-04-06T19:14:01.651Z,101061.69
2023-04-06T19:16:32.332Z,101069.79
2023-04-06T19:19:00.872Z,101070.31
2023-04-06T19:21:29.413Z,101073.07
2023-04-06T19:23:58.669Z,101076.86
2023-04-06T19:26:29.591Z,101079.08
2023-04-06T19:28:59.190Z,101085.45
2023-04-06T19:31:28.110Z,101087.20
2023-04-06T19:33:56.447Z,101086.33
2023-04-06T19:36:26.432Z,101088.71
2023-04-06T19:38:55.544Z,101091.67
2023-04-06T19:41:24.421Z,101093.05
2023-04-06T19:43:53.137Z,101099.25
2023-04-06T19:46:21.698Z,101104.76
2023-04-06T19:48:49.915Z,101103.23
2023-04-06T19:51:18.173Z,101111.35
2023-04-06T19:53:47.077Z,101108.42
2023-04-06T19:56:16.385Z,101108.41
2023-04-06T19:58:45.153Z,101113.59
2023-04-06T20:01:13.429Z,101112.21
2023-04-06T20:03:42.081Z,101115.64
2023-04-06T20:06:11.165Z,101116.69
2023-04-06T20:08:39.333Z,101118.23
2023-04-06T20:11:08.693Z,101117.20
2023-04-06T20:13:37.720Z,101117.38
2023-04-06T20:16:06.176Z,101115.65
2023-04-06T20:18:47.811Z,101118.06
2023-04-06T20:21:16.082Z,101116.17
2023-04-06T20:23:44.192Z,101116.69
2023-04-06T20:26:12.290Z,101119.62
2023-04-06T20:28:40.744Z,101118.25
2023-04-06T20:31:14.120Z,101118.17
2023-04-06T20:33:45.909Z,101120.58
2023-04-06T20:36:14.439Z,101116.63
2023-04-06T20:38:48.001Z,101117.67
2023-04-06T20:41:16.530Z,101121.97
2023-04-06T20:43:45.362Z,101123.19
2023-04-06T20:46:19.606Z,101124.22
2023-04-06T20:48:47.804Z,101121.81
2023-04-06T20:51:23.231Z,101124.92
2023-04-06T20:53:53.083Z,101125.25
2023-04-06T20:56:26.986Z,101121.79
2023-04-06T20:58:57.035Z,101120.56
2023-04-06T21:01:25.694Z,101128.11
2023-04-06T21:03:54.913Z,101128.30
2023-04-06T21:06:30.095Z,101129.35
2023-04-06T21:08:59.456Z,101127.63
2023-04-06T21:11:27.646Z,101128.02
2023-04-06T21:13:56.791Z,101133.00
2023-04-06T21:16:26.103Z,101131.94
2023-04-06T21:18:54.770Z,101132.97
2023-04-06T21:21:23.024Z,101134.50
2023-04-06T21:23:52.997Z,101131.70
2023-04-06T21:26:21.258Z,101136.37
2023-04-06T21:28:49.548Z,101136.04
2023-04-06T21:31:20.130Z,101135.34
2023-04-06T21:33:55.771Z,101138.11
2023-04-06T21:36:24.016Z,101139.27
2023-04-06T21:38:52.991Z,101138.52
2023-04-06T21:41:22.169Z,101137.90
2023-04-06T21:43:50.403Z,101139.77
2023-04-06T21:46:18.608Z,101141.26
2023-04-06T21:48:47.977Z,101143.13
2023-04-06T21:51:17.740Z,101143.63
2023-04-06T21:53:45.933Z,101147.89
2023-04-06T21:56:14.240Z,101143.95
2023-04-06T21:58:48.103Z,101146.32
2023-04-06T22:01:16.452Z,101146.88
2023-04-06T22:03:45.442Z,101148.89
2023-04-06T22:06:14.107Z,101150.91
2023-04-06T22:08:47.747Z,101151.52
2023-04-06T22:11:21.342Z,101147.56
2023-04-06T22:13:49.943Z,101152.21
2023-04-06T22:16:18.839Z,101151.73
2023-04-06T22:18:55.345Z,101151.90
2023-04-06T22:21:23.508Z,101150.88
2023-04-06T22:23:51.591Z,101150.20
2023-04-06T22:26:21.088Z,101147.09
2023-04-06T22:28:53.101Z,101145.71
2023-04-06T22:31:21.257Z,101139.51
2023-04-06T22:33:49.681Z,101138.81
2023-04-06T22:36:18.006Z,101132.90
2023-04-06T22:38:49.457Z,101133.09
2023-04-06T22:41:17.694Z,101136.54
2023-04-06T22:43:45.763Z,101143.45
2023-04-06T22:46:14.069Z,101145.85
2023-04-06T22:48:42.342Z,101143.21
2023-04-06T22:51:10.542Z,101140.10
2023-04-06T22:53:38.720Z,101144.38
2023-04-06T22:56:07.719Z,101142.65
2023-04-06T22:58:35.907Z,101141.80
2023-04-06T23:01:08.266Z,101143.41
2023-04-06T23:03:38.764Z,101146.86
2023-04-06T23:06:07.215Z,101149.45
2023-04-06T23:08:35.337Z,101146.98
2023-04-06T23:11:04.322Z,101148.19
2023-04-06T23:13:34.331Z,101145.41
2023-04-06T23:16:02.423Z,101142.69
2023-04-06T23:18:32.679Z,101143.20
2023-04-06T23:21:01.075Z,101144.40
2023-04-06T23:23:29.257Z,101143.19
2023-04-06T23:25:57.362Z,101144.18
2023-04-06T23:28:25.496Z,101144.36
2023-04-06T23:30:53.755Z,101142.58
2023-04-06T23:33:23.004Z,101137.02
2023-04-06T23:35:52.208Z,101137.02
2023-04-06T23:38:20.447Z,101132.74
2023-04-06T23:40:48.575Z,101132.23
2023-04-06T23:43:17.526Z,101134.13
2023-04-06T23:45:45.743Z,101129.98
2023-04-06T23:48:14.762Z,101127.40
2023-04-06T23:50:43.225Z,101127.92
2023-04-06T23:53:17.676Z,101127.94
2023-04-06T23:55:45.807Z,101125.91
2023-04-06T23:58:14.006Z,101126.63
